Time;durP1;ratioP1;P1;durP2;ratioP2;P2;SDS_P1;SDS_P2;PMS_P1;PMS_P2;Temp;Humidity;BMP_temperature;BMP_pressure;BME280_temperature;BME280_humidity;BME280_pressure;Samples;Min_cycle;Max_cycle;Signal;HPM_P1;HPM_P2
2022/06/17 00:01:46;;;;;;;0.10;0.10;;;;;;;12.59;82.46;101177.72;5069961;28;20175;-72
2022/06/17 00:04:12;;;;;;;0.00;0.00;;;;;;;12.53;82.90;101177.00;5069970;28;20174;-73
2022/06/17 00:06:57;;;;;;;0.00;0.00;;;;;;;12.54;83.10;101175.06;5069700;28;20183;-72
2022/06/17 00:09:24;;;;;;;0.00;0.00;;;;;;;12.62;82.82;101182.59;5069685;28;20565;-72
2022/06/17 00:11:50;;;;;;;0.00;0.00;;;;;;;12.75;84.04;101182.56;5070015;28;20253;-72
2022/06/17 00:17:27;;;;;;;0.00;0.00;;;;;;;12.85;81.97;101187.00;5069696;28;20275;-72
2022/06/17 00:19:52;;;;;;;0.00;0.00;;;;;;;12.89;82.36;101192.69;5071367;28;20183;-73
2022/06/17 00:22:17;;;;;;;0.00;0.00;;;;;;;12.86;81.48;101188.63;5055707;28;20178;-73
2022/06/17 00:24:43;;;;;;;0.00;0.00;;;;;;;12.79;82.42;101188.25;5073513;28;20185;-72
2022/06/17 00:27:10;;;;;;;0.00;0.00;;;;;;;12.61;82.76;101186.47;5073439;28;20182;-73
2022/06/17 00:29:36;;;;;;;0.00;0.00;;;;;;;12.43;83.50;101191.72;5073033;28;20170;-72
2022/06/17 00:32:02;;;;;;;0.00;0.00;;;;;;;12.30;84.51;101187.09;5073423;28;20630;-73
2022/06/17 00:34:27;;;;;;;0.00;0.00;;;;;;;12.21;84.89;101186.97;5073334;28;20353;-71
2022/06/17 00:36:56;;;;;;;0.40;0.40;;;;;;;12.04;85.34;101197.72;5072970;28;20214;-73
2022/06/17 00:39:27;;;;;;;0.00;0.00;;;;;;;11.94;86.31;101200.63;5073098;28;20539;-73
2022/06/17 00:41:55;;;;;;;0.30;0.30;;;;;;;11.92;86.28;101202.88;5073209;28;20198;-71
2022/06/17 00:44:47;;;;;;;0.20;0.20;;;;;;;11.89;86.85;101207.03;5071947;28;20537;-72
2022/06/17 00:47:37;;;;;;;0.00;0.00;;;;;;;11.82;87.36;101216.72;5072862;28;20189;-72
2022/06/17 00:50:13;;;;;;;0.20;0.20;;;;;;;11.79;88.50;101209.94;5072988;28;20259;-72
2022/06/17 00:52:46;;;;;;;0.27;0.27;;;;;;;11.79;88.59;101204.47;5073040;28;20174;-72
2022/06/17 00:55:24;;;;;;;0.40;0.40;;;;;;;11.75;88.67;101203.41;5073061;28;20179;-72
2022/06/17 00:57:49;;;;;;;0.20;0.20;;;;;;;11.66;89.16;101202.47;5072324;28;20206;-72
2022/06/17 01:00:21;;;;;;;0.50;0.40;;;;;;;11.71;88.47;101210.59;5072794;28;20653;-72
2022/06/17 01:03:00;;;;;;;0.20;0.20;;;;;;;11.84;87.91;101222.72;5072825;28;20611;-72
2022/06/17 01:05:42;;;;;;;0.57;0.57;;;;;;;11.93;87.19;101218.19;5072759;28;20181;-72
2022/06/17 01:09:56;;;;;;;15.20;0.67;;;;;;;12.16;85.91;101224.63;5072197;28;20265;-71
2022/06/17 01:11:03;;;;;;;0.30;0.30;;;;;;;12.37;83.84;101214.06;5072622;28;20233;-71
2022/06/17 01:13:28;;;;;;;0.33;0.33;;;;;;;12.45;83.44;101205.16;5072729;28;20259;-72
2022/06/17 01:15:54;;;;;;;0.10;0.10;;;;;;;12.48;83.16;101194.38;5072744;28;20269;-72
2022/06/17 01:18:19;;;;;;;0.20;0.20;;;;;;;12.43;83.32;101201.88;5071963;28;20202;-72
2022/06/17 01:20:48;;;;;;;0.00;0.00;;;;;;;12.40;82.41;101200.56;5072561;28;20175;-72
2022/06/17 01:23:14;;;;;;;0.37;0.37;;;;;;;12.35;82.54;101203.41;5072515;28;20654;-72
2022/06/17 01:25:43;;;;;;;0.10;0.10;;;;;;;12.31;83.65;101213.38;5072537;28;20175;-72
2022/06/17 01:28:13;;;;;;;0.23;0.23;;;;;;;12.29;83.11;101215.56;5071978;28;20556;-72
2022/06/17 01:30:48;;;;;;;0.57;0.57;;;;;;;12.21;83.74;101213.56;5072124;28;20541;-72
2022/06/17 01:33:26;;;;;;;28.00;1.70;;;;;;;12.16;83.93;101208.19;5072442;28;20255;-72
2022/06/17 01:36:24;;;;;;;0.00;0.00;;;;;;;12.10;84.70;101217.59;5072168;28;20181;-72
2022/06/17 01:38:52;;;;;;;0.00;0.00;;;;;;;11.97;85.07;101218.38;5052352;28;20289;-73
2022/06/17 01:41:21;;;;;;;0.00;0.00;;;;;;;11.84;86.19;101214.50;5072099;28;20279;-72
2022/06/17 01:44:10;;;;;;;0.00;0.00;;;;;;;11.85;87.13;101214.19;5070704;28;20373;-72
2022/06/17 01:46:42;;;;;;;0.10;0.10;;;;;;;11.85;86.81;101218.88;5071830;28;20193;-72
2022/06/17 01:49:12;;;;;;;0.00;0.00;;;;;;;11.82;87.27;101219.47;5071683;28;20189;-72
2022/06/17 01:51:44;;;;;;;0.10;0.10;;;;;;;11.80;87.38;101219.78;5072058;28;20579;-72
2022/06/17 01:54:17;;;;;;;0.03;0.03;;;;;;;11.67;87.31;101231.47;5071861;28;20205;-72
2022/06/17 01:56:44;;;;;;;0.00;0.00;;;;;;;11.57;87.74;101239.84;5071659;28;20240;-72
2022/06/17 01:59:16;;;;;;;0.00;0.00;;;;;;;11.56;88.12;101243.69;5072097;28;20200;-72
2022/06/17 02:01:47;;;;;;;0.03;0.03;;;;;;;11.55;87.41;101237.41;5071960;28;20202;-72
2022/06/17 02:04:23;;;;;;;0.27;0.27;;;;;;;11.55;88.02;101244.78;5071890;28;20189;-72
2022/06/17 02:07:00;;;;;;;0.20;0.20;;;;;;;11.63;88.51;101247.69;5071428;28;20228;-74
2022/06/17 02:09:26;;;;;;;0.47;0.43;;;;;;;11.66;87.48;101262.69;5071439;28;20186;-73
2022/06/17 02:11:52;;;;;;;0.10;0.10;;;;;;;11.63;88.37;101260.56;5071517;28;20179;-72
2022/06/17 02:14:18;;;;;;;0.20;0.20;;;;;;;11.75;87.49;101268.31;5071602;28;20205;-72
2022/06/17 02:16:50;;;;;;;0.63;0.63;;;;;;;11.68;87.26;101260.47;5071080;28;20285;-73
2022/06/17 02:19:16;;;;;;;0.20;0.20;;;;;;;11.67;87.42;101258.84;5070937;28;20175;-72
2022/06/17 02:21:50;;;;;;;0.10;0.10;;;;;;;11.76;87.12;101267.19;5071525;28;20237;-73
2022/06/17 02:24:17;;;;;;;0.30;0.30;;;;;;;11.72;87.60;101272.47;5071414;28;20192;-73
2022/06/17 02:26:44;;;;;;;0.23;0.23;;;;;;;11.70;87.74;101269.19;5071314;28;20185;-73
2022/06/17 02:29:12;;;;;;;0.60;0.37;;;;;;;11.85;86.30;101266.22;5071008;28;20179;-72
2022/06/17 02:31:40;;;;;;;0.97;0.97;;;;;;;12.02;85.73;101262.94;5071020;28;20206;-72
2022/06/17 02:34:08;;;;;;;0.50;0.50;;;;;;;12.20;84.24;101266.72;5071241;28;20174;-73
2022/06/17 02:36:41;;;;;;;0.10;0.10;;;;;;;12.32;83.45;101252.53;5070761;28;20194;-74
2022/06/17 02:39:12;;;;;;;0.53;0.20;;;;;;;12.38;82.91;101246.66;5070696;28;20635;-72
2022/06/17 02:41:38;;;;;;;0.13;0.13;;;;;;;12.41;82.75;101242.47;5070819;28;20182;-72
2022/06/17 02:44:11;;;;;;;0.00;0.00;;;;;;;12.42;82.80;101235.88;5069247;28;20630;-72
2022/06/17 02:46:41;;;;;;;0.00;0.00;;;;;;;12.33;82.45;101238.53;5070744;28;20201;-73
2022/06/17 02:49:14;;;;;;;0.00;0.00;;;;;;;11.68;84.35;101235.00;5070557;28;20177;-73
2022/06/17 02:51:42;;;;;;;0.00;0.00;;;;;;;11.46;85.39;101227.44;5070963;28;20209;-73
2022/06/17 02:54:09;;;;;;;0.00;0.00;;;;;;;11.47;87.08;101229.88;5070726;28;20221;-73
2022/06/17 02:56:37;;;;;;;0.00;0.00;;;;;;;11.75;86.90;101232.72;5070578;28;20690;-73
2022/06/17 02:59:06;;;;;;;0.00;0.00;;;;;;;11.94;86.09;101233.50;5070408;28;20645;-74
2022/06/17 03:01:34;;;;;;;0.00;0.00;;;;;;;12.10;85.42;101237.59;5070639;28;20193;-73
2022/06/17 03:04:01;;;;;;;0.17;0.17;;;;;;;12.06;83.93;101238.50;5071265;28;20340;-72
2022/06/17 03:06:35;;;;;;;0.00;0.00;;;;;;;11.92;83.82;101241.22;5071829;28;20174;-73
2022/06/17 03:09:24;;;;;;;0.00;0.00;;;;;;;11.83;85.10;101248.47;5070629;28;20173;-72
2022/06/17 03:11:54;;;;;;;0.00;0.00;;;;;;;11.70;86.27;101243.72;5070572;28;20722;-73
2022/06/17 03:14:21;;;;;;;0.20;0.20;;;;;;;11.65;87.47;101246.56;5070731;28;20170;-73
2022/06/17 03:16:50;;;;;;;0.00;0.00;;;;;;;11.71;88.18;101246.16;5070232;28;20198;-73
2022/06/17 03:19:15;;;;;;;0.00;0.00;;;;;;;11.75;87.54;101241.75;5070249;28;20205;-72
2022/06/17 03:21:41;;;;;;;0.00;0.00;;;;;;;11.83;87.46;101248.47;5070470;28;20171;-72
2022/06/17 03:24:43;;;;;;;0.00;0.00;;;;;;;11.78;86.75;101254.00;5070808;28;20175;-73
2022/06/17 03:27:19;;;;;;;0.00;0.00;;;;;;;11.74;86.92;101250.25;5070240;28;20200;-73
2022/06/17 03:29:46;;;;;;;0.20;0.20;;;;;;;11.78;86.72;101243.88;5070115;28;20182;-73
2022/06/17 03:32:19;;;;;;;0.00;0.00;;;;;;;11.77;87.07;101255.94;5070330;28;20186;-73
2022/06/17 03:34:48;;;;;;;0.00;0.00;;;;;;;11.58;87.68;101249.69;5070219;28;20645;-72
2022/06/17 03:37:23;;;;;;;0.00;0.00;;;;;;;11.63;87.72;101250.41;5069982;28;20206;-73
2022/06/17 03:39:58;;;;;;;0.00;0.00;;;;;;;11.71;87.23;101254.38;5069973;28;20170;-73
2022/06/17 03:42:29;;;;;;;0.00;0.00;;;;;;;11.61;87.20;101247.16;5070281;28;20182;-73
2022/06/17 03:45:02;;;;;;;0.00;0.00;;;;;;;11.59;87.34;101256.78;5051659;28;20535;-73
2022/06/17 03:48:00;;;;;;;0.00;0.00;;;;;;;11.55;88.18;101255.75;5069750;28;20197;-73
2022/06/17 03:50:32;;;;;;;0.00;0.00;;;;;;;11.38;88.67;101252.72;5070180;28;20228;-73
2022/06/17 03:53:03;;;;;;;0.00;0.00;;;;;;;11.51;89.13;101255.53;5070162;28;20179;-73
2022/06/17 03:55:29;;;;;;;0.00;0.00;;;;;;;11.82;89.01;101260.53;5072930;28;20182;-72
2022/06/17 03:57:57;;;;;;;0.00;0.00;;;;;;;12.10;88.29;101261.44;5073624;28;20517;-73
2022/06/17 04:00:31;;;;;;;0.00;0.00;;;;;;;12.33;87.08;101265.13;5074333;28;20274;-73
2022/06/17 04:02:59;;;;;;;0.00;0.00;;;;;;;12.47;86.63;101264.03;5074352;28;20483;-72
2022/06/17 04:05:26;;;;;;;0.10;0.10;;;;;;;12.63;86.48;101272.75;5074037;28;20173;-74
2022/06/17 04:07:51;;;;;;;0.00;0.00;;;;;;;12.81;85.54;101274.56;5073430;28;20244;-72
2022/06/17 04:10:20;;;;;;;0.00;0.00;;;;;;;12.73;84.33;101278.03;5073954;28;20183;-73
2022/06/17 04:12:50;;;;;;;0.00;0.00;;;;;;;12.70;83.96;101275.88;5073860;28;20170;-73
2022/06/17 04:15:16;;;;;;;0.00;0.00;;;;;;;12.77;83.47;101272.75;5073818;28;20646;-73
2022/06/17 04:17:45;;;;;;;0.00;0.00;;;;;;;12.75;82.81;101278.53;5072995;28;20206;-74
2022/06/17 04:20:26;;;;;;;0.00;0.00;;;;;;;12.88;83.28;101284.34;5073738;28;20171;-75
2022/06/17 04:22:56;;;;;;;0.00;0.00;;;;;;;12.94;83.62;101286.66;5073740;28;20166;-73
2022/06/17 04:25:32;;;;;;;0.00;0.00;;;;;;;12.97;82.72;101286.03;5073600;28;20179;-73
2022/06/17 04:28:03;;;;;;;0.07;0.07;;;;;;;13.01;82.89;101287.03;5072969;28;20217;-73
2022/06/17 04:30:33;;;;;;;0.00;0.00;;;;;;;13.00;82.91;101274.44;5073510;28;20186;-74
2022/06/17 04:33:04;;;;;;;0.00;0.00;;;;;;;13.09;82.57;101280.84;5073619;28;20592;-73
2022/06/17 04:35:29;;;;;;;0.00;0.00;;;;;;;13.27;82.93;101278.28;5073552;28;20587;-74
2022/06/17 04:37:55;;;;;;;0.00;0.00;;;;;;;13.39;82.69;101273.88;5072563;28;20202;-73
2022/06/17 04:40:32;;;;;;;0.00;0.00;;;;;;;13.56;83.56;101266.91;5073586;28;20573;-74
2022/06/17 04:42:59;;;;;;;0.00;0.00;;;;;;;13.62;82.33;101258.25;5073297;28;20566;-72
2022/06/17 04:45:28;;;;;;;0.00;0.00;;;;;;;13.53;82.48;101262.03;5072166;28;20182;-73
2022/06/17 04:47:54;;;;;;;0.00;0.00;;;;;;;13.55;82.81;101265.28;5071591;28;20182;-73
2022/06/17 04:50:25;;;;;;;0.00;0.00;;;;;;;13.58;82.64;101268.22;5071969;28;20224;-73
2022/06/17 04:52:51;;;;;;;0.00;0.00;;;;;;;13.52;82.91;101266.72;5071962;28;20175;-73
2022/06/17 04:55:38;;;;;;;0.00;0.00;;;;;;;13.59;84.02;101267.09;5072001;28;20178;-73
2022/06/17 04:58:03;;;;;;;0.00;0.00;;;;;;;13.87;83.63;101269.72;5071196;28;20569;-74
2022/06/17 05:00:30;;;;;;;0.00;0.00;;;;;;;14.09;82.01;101268.88;5071715;28;20170;-74
2022/06/17 05:02:55;;;;;;;1.10;1.10;;;;;;;14.24;81.56;101265.72;5071876;28;20265;-74
2022/06/17 05:05:31;;;;;;;0.00;0.00;;;;;;;14.32;81.01;101272.38;5071299;28;20174;-73
2022/06/17 05:07:57;;;;;;;0.00;0.00;;;;;;;14.35;81.26;101277.28;5071269;28;20170;-74
2022/06/17 05:10:27;;;;;;;0.00;0.00;;;;;;;14.40;81.61;101280.69;5071710;28;20170;-73
2022/06/17 05:13:02;;;;;;;0.00;0.00;;;;;;;14.45;82.79;101277.00;5071581;28;20266;-73
2022/06/17 05:15:28;;;;;;;0.00;0.00;;;;;;;14.56;82.83;101294.84;5071638;28;20253;-73
2022/06/17 05:17:55;;;;;;;0.00;0.00;;;;;;;14.53;82.23;101284.50;5071057;28;20206;-73
2022/06/17 05:20:22;;;;;;;0.00;0.00;;;;;;;14.40;84.34;101277.13;5071805;28;20530;-74
2022/06/17 05:23:00;;;;;;;0.00;0.00;;;;;;;14.41;85.67;101276.00;5071463;28;20171;-72
2022/06/17 05:25:31;;;;;;;0.00;0.00;;;;;;;14.48;87.69;101282.72;5071461;28;20261;-73
2022/06/17 05:27:56;;;;;;;0.00;0.00;;;;;;;14.41;87.60;101278.75;5052688;28;20174;-73
2022/06/17 05:30:23;;;;;;;0.00;0.00;;;;;;;14.41;87.70;101279.56;5071348;28;20262;-74
2022/06/17 05:32:51;;;;;;;0.00;0.00;;;;;;;14.51;87.10;101282.06;5071367;28;20224;-72
2022/06/17 05:35:18;;;;;;;0.00;0.00;;;;;;;14.61;87.94;101282.91;5071303;28;20257;-74
2022/06/17 05:37:43;;;;;;;0.00;0.00;;;;;;;14.69;87.04;101293.94;5070637;28;20681;-73
2022/06/17 05:40:10;;;;;;;0.10;0.10;;;;;;;14.92;86.76;101297.44;5071151;28;20171;-74
2022/06/17 05:42:36;;;;;;;0.00;0.00;;;;;;;15.12;84.92;101302.31;5071306;28;20174;-72
2022/06/17 05:45:03;;;;;;;0.00;0.00;;;;;;;15.24;81.86;101293.44;5069804;28;20634;-73
2022/06/17 05:47:28;;;;;;;0.00;0.00;;;;;;;15.33;77.73;101293.44;5032608;28;1101068;-73
2022/06/17 05:49:53;;;;;;;2.10;0.83;;;;;;;15.38;75.66;101302.38;5071743;28;20538;-73
2022/06/17 05:52:19;;;;;;;0.13;0.13;;;;;;;15.40;74.71;101302.84;5072005;28;20274;-74
2022/06/17 05:54:45;;;;;;;0.63;0.63;;;;;;;15.48;74.46;101304.00;5054032;28;20174;-73
2022/06/17 05:57:11;;;;;;;4.13;1.17;;;;;;;15.52;74.56;101301.41;5071565;28;20198;-74
2022/06/17 05:59:36;;;;;;;0.70;0.70;;;;;;;15.50;75.16;101301.72;5071609;28;20182;-74
2022/06/17 06:02:01;;;;;;;0.97;0.97;;;;;;;15.54;74.94;101307.41;5071885;28;20678;-73
2022/06/17 06:04:28;;;;;;;0.33;0.33;;;;;;;15.56;74.83;101307.88;5071596;28;20705;-74
2022/06/17 06:06:53;;;;;;;0.53;0.53;;;;;;;15.59;75.22;101298.97;5053400;28;20174;-73
2022/06/17 06:09:19;;;;;;;0.20;0.20;;;;;;;15.67;75.52;101306.47;5071103;28;20551;-73
2022/06/17 06:11:44;;;;;;;0.60;0.17;;;;;;;15.76;74.26;101304.50;5071581;28;20178;-73
2022/06/17 06:14:09;;;;;;;0.00;0.00;;;;;;;15.86;73.83;101309.69;5071543;28;20174;-74
2022/06/17 06:16:38;;;;;;;0.17;0.17;;;;;;;15.99;73.84;101305.13;5070936;28;20182;-73
2022/06/17 06:19:04;;;;;;;0.70;0.70;;;;;;;16.02;73.53;101313.53;5070844;28;20231;-73
2022/06/17 06:21:29;;;;;;;0.53;0.40;;;;;;;16.14;73.36;101317.59;5071626;28;20175;-73
2022/06/17 06:23:56;;;;;;;1.27;1.17;;;;;;;16.22;72.14;101314.81;5071333;28;20588;-73
2022/06/17 06:26:22;;;;;;;0.60;0.60;;;;;;;16.27;72.74;101322.09;5071261;28;20257;-73
2022/06/17 06:28:47;;;;;;;1.17;0.70;;;;;;;16.36;72.56;101333.94;5070295;28;20223;-74
2022/06/17 06:31:22;;;;;;;0.23;0.23;;;;;;;16.43;72.00;101336.97;5071185;28;20167;-74
2022/06/17 06:33:48;;;;;;;0.27;0.27;;;;;;;16.56;71.75;101337.91;5071078;28;20238;-73
2022/06/17 06:36:13;;;;;;;0.40;0.40;;;;;;;16.75;70.68;101337.53;5071236;28;20634;-73
2022/06/17 06:38:38;;;;;;;0.00;0.00;;;;;;;16.82;69.11;101333.13;5070412;28;20715;-73
2022/06/17 06:41:04;;;;;;;0.47;0.47;;;;;;;16.88;68.46;101342.03;5070884;28;20249;-73
2022/06/17 06:43:30;;;;;;;0.63;0.63;;;;;;;16.98;66.75;101335.34;5070942;28;20255;-73
2022/06/17 06:45:56;;;;;;;3.77;1.53;;;;;;;17.10;67.79;101333.50;5051481;28;20646;-72
2022/06/17 06:48:23;;;;;;;2.30;1.20;;;;;;;17.04;66.13;101340.31;5070293;28;20186;-73
2022/06/17 06:50:49;;;;;;;1.97;1.47;;;;;;;17.14;67.10;101330.84;5070818;28;20634;-74
2022/06/17 06:53:15;;;;;;;0.40;0.40;;;;;;;17.14;66.89;101341.91;5070924;28;20232;-74
2022/06/17 06:55:40;;;;;;;0.10;0.10;;;;;;;17.26;66.69;101339.25;5070844;28;20540;-73
2022/06/17 06:58:12;;;;;;;1.03;1.00;;;;;;;17.39;66.16;101332.66;5070000;28;20293;-74
2022/06/17 07:00:41;;;;;;;1.30;1.20;;;;;;;17.42;65.79;101320.94;5070673;28;20209;-74
2022/06/17 07:03:07;;;;;;;0.60;0.57;;;;;;;17.54;65.97;101329.28;5070659;28;20170;-74
2022/06/17 07:05:35;;;;;;;0.10;0.10;;;;;;;17.68;65.53;101329.06;5070710;28;20178;-73
2022/06/17 07:08:00;;;;;;;0.63;0.63;;;;;;;17.76;65.17;101328.16;5070019;28;20170;-73
2022/06/17 07:10:30;;;;;;;4.23;0.97;;;;;;;17.86;64.54;101324.19;5070435;28;20699;-73
2022/06/17 07:12:56;;;;;;;0.20;0.20;;;;;;;17.94;64.72;101323.31;5070670;28;20177;-73
2022/06/17 07:15:22;;;;;;;0.10;0.10;;;;;;;18.06;63.70;101323.31;5070527;28;20162;-73
2022/06/17 07:18:03;;;;;;;0.40;0.40;;;;;;;18.13;63.15;101328.31;5069774;28;20256;-73
2022/06/17 07:20:37;;;;;;;0.30;0.30;;;;;;;18.26;62.54;101320.88;5070340;28;20205;-73
2022/06/17 07:23:04;;;;;;;0.00;0.00;;;;;;;18.27;62.33;101320.53;5052529;28;20656;-73
2022/06/17 07:25:30;;;;;;;0.53;0.53;;;;;;;18.35;60.28;101319.59;5070316;28;20180;-72
2022/06/17 07:27:55;;;;;;;0.33;0.33;;;;;;;18.47;58.61;101323.56;5069691;28;20170;-73
2022/06/17 07:30:21;;;;;;;0.80;0.73;;;;;;;18.56;59.18;101325.06;5070750;28;20210;-73
2022/06/17 07:32:47;;;;;;;0.20;0.20;;;;;;;18.61;58.26;101324.03;5070415;28;20181;-73
2022/06/17 07:35:14;;;;;;;0.27;0.27;;;;;;;18.86;59.04;101333.22;5070247;28;20183;-73
2022/06/17 07:40:24;;;;;;;0.50;0.50;;;;;;;18.96;55.14;101333.56;5070499;28;20209;-74
2022/06/17 07:42:49;;;;;;;0.00;0.00;;;;;;;19.14;56.20;101336.09;5070490;28;20202;-73
2022/06/17 07:45:18;;;;;;;0.50;0.50;;;;;;;19.12;55.23;101349.50;5068596;28;20534;-74
2022/06/17 07:47:48;;;;;;;2.70;1.27;;;;;;;19.19;56.02;101344.16;5069467;28;20186;-72
2022/06/17 07:50:18;;;;;;;0.30;0.30;;;;;;;19.21;55.04;101337.09;5070086;28;20552;-73
2022/06/17 07:52:44;;;;;;;0.63;0.63;;;;;;;19.32;56.09;101326.38;5070167;28;20170;-73
2022/06/17 07:55:09;;;;;;;1.33;1.23;;;;;;;19.29;55.08;101308.47;5052265;28;20606;-73
2022/06/17 07:57:35;;;;;;;0.13;0.13;;;;;;;19.16;56.26;101300.53;5069591;28;20236;-73
2022/06/17 08:00:01;;;;;;;0.37;0.37;;;;;;;19.15;55.74;101299.72;5070069;28;20206;-73
2022/06/17 08:02:26;;;;;;;0.93;0.63;;;;;;;19.28;55.56;101311.59;5069940;28;20205;-73
2022/06/17 08:04:52;;;;;;;0.30;0.30;;;;;;;19.39;56.20;101298.88;5069953;28;20175;-73
2022/06/17 08:07:17;;;;;;;0.93;0.93;;;;;;;19.44;56.09;101298.63;5069776;28;20236;-73
2022/06/17 08:09:43;;;;;;;0.20;0.20;;;;;;;19.47;56.89;101292.38;5069528;28;20171;-73
2022/06/17 08:12:11;;;;;;;0.33;0.33;;;;;;;19.53;57.83;101291.00;5069963;28;20173;-72
2022/06/17 08:14:43;;;;;;;0.23;0.23;;;;;;;19.69;57.24;101287.50;5069936;28;20553;-73
2022/06/17 08:17:10;;;;;;;0.50;0.50;;;;;;;19.79;54.09;101295.28;5069499;28;20646;-74
2022/06/17 08:19:35;;;;;;;0.40;0.40;;;;;;;19.74;52.36;101293.59;5069393;28;20171;-73
2022/06/17 08:22:00;;;;;;;0.10;0.10;;;;;;;19.82;53.23;101289.88;5070068;28;20241;-74
2022/06/17 08:24:26;;;;;;;0.00;0.00;;;;;;;19.90;53.45;101286.13;5069839;28;20181;-73
2022/06/17 08:26:51;;;;;;;0.10;0.10;;;;;;;19.89;53.34;101287.28;5069761;28;20184;-74
2022/06/17 08:29:16;;;;;;;1.17;0.67;;;;;;;20.04;53.97;101291.25;5069514;28;20639;-73
2022/06/17 08:31:42;;;;;;;0.63;0.30;;;;;;;20.15;53.70;101292.34;5069635;28;20195;-74
2022/06/17 08:34:07;;;;;;;0.00;0.00;;;;;;;20.16;52.51;101293.97;5069702;28;20622;-73
2022/06/17 08:36:33;;;;;;;0.27;0.10;;;;;;;20.30;53.61;101299.09;5069448;28;20168;-74
2022/06/17 08:39:06;;;;;;;0.43;0.43;;;;;;;20.41;53.54;101293.81;5069243;28;20178;-73
2022/06/17 08:41:38;;;;;;;0.53;0.53;;;;;;;20.46;53.63;101294.38;5072318;28;20185;-73
2022/06/17 08:44:19;;;;;;;0.10;0.10;;;;;;;20.50;53.53;101280.59;5071813;28;20223;-73
2022/06/17 08:47:06;;;;;;;0.73;0.73;;;;;;;20.69;55.21;101279.88;5073035;28;20668;-73
2022/06/17 08:49:46;;;;;;;0.00;0.00;;;;;;;20.70;54.38;101287.06;5072979;28;20182;-73
2022/06/17 08:52:24;;;;;;;0.10;0.10;;;;;;;20.81;55.49;101296.41;5073452;28;20201;-73
2022/06/17 08:55:00;;;;;;;0.80;0.80;;;;;;;20.79;54.00;101282.09;5073182;28;20257;-73
2022/06/17 08:57:50;;;;;;;0.00;0.00;;;;;;;20.75;54.76;101282.03;5072785;28;20209;-73
2022/06/17 09:00:20;;;;;;;0.00;0.00;;;;;;;20.78;54.35;101286.03;5073144;28;20637;-74
2022/06/17 09:03:13;;;;;;;0.63;0.63;;;;;;;20.93;54.90;101278.84;5072996;28;20633;-73
2022/06/17 09:05:41;;;;;;;0.10;0.10;;;;;;;20.95;55.03;101268.19;5073059;28;20182;-73
2022/06/17 09:08:32;;;;;;;0.10;0.07;;;;;;;21.03;54.72;101268.00;5072628;28;20252;-73
2022/06/17 09:11:24;;;;;;;0.00;0.00;;;;;;;21.19;54.21;101264.34;5072857;28;20192;-73
2022/06/17 09:14:05;;;;;;;0.10;0.03;;;;;;;21.44;54.39;101256.59;5072816;28;20177;-73
2022/06/17 09:16:54;;;;;;;14.97;0.40;;;;;;;21.40;53.22;101248.16;5072606;28;20240;-73
2022/06/17 09:19:27;;;;;;;0.33;0.33;;;;;;;21.35;53.40;101249.25;5072237;28;20181;-73
2022/06/17 09:21:57;;;;;;;0.00;0.00;;;;;;;21.47;53.53;101239.97;5072741;28;20202;-73
2022/06/17 09:24:48;;;;;;;0.00;0.00;;;;;;;21.67;52.30;101243.53;5072638;28;20206;-74
2022/06/17 09:27:28;;;;;;;0.20;0.20;;;;;;;21.75;52.00;101244.50;5068034;28;20300;-73
2022/06/17 09:30:12;;;;;;;1.03;1.03;;;;;;;21.74;51.13;101249.25;5072297;28;20196;-73
2022/06/17 09:32:46;;;;;;;1.03;1.03;;;;;;;21.69;51.41;101250.34;5072489;28;20622;-74
2022/06/17 09:35:29;;;;;;;0.00;0.00;;;;;;;21.54;51.31;101247.66;5072475;28;20180;-74
2022/06/17 09:38:14;;;;;;;7.20;0.77;;;;;;;21.61;50.63;101245.03;5072719;28;20242;-73
2022/06/17 09:40:55;;;;;;;0.00;0.00;;;;;;;21.65;50.34;101249.47;5072643;28;20267;-74
2022/06/17 09:43:39;;;;;;;0.00;0.00;;;;;;;21.88;50.46;101249.53;5072284;28;20175;-74
2022/06/17 09:46:32;;;;;;;0.30;0.30;;;;;;;22.24;51.34;101258.56;5072204;28;20633;-73
2022/06/17 09:49:28;;;;;;;0.00;0.00;;;;;;;22.30;48.16;101245.16;5071761;28;20265;-73
2022/06/17 09:52:36;;;;;;;0.37;0.37;;;;;;;22.15;48.93;101244.09;5062869;28;20182;-73
2022/06/17 09:55:01;;;;;;;0.00;0.00;;;;;;;22.51;49.27;101243.50;5022968;28;20186;-75
2022/06/17 09:57:38;;;;;;;0.00;0.00;;;;;;;22.74;48.95;101253.84;5071540;28;20212;-74
2022/06/17 10:00:11;;;;;;;3.43;0.23;;;;;;;22.47;46.59;101251.00;5072445;28;20174;-73
2022/06/17 10:03:13;;;;;;;0.27;0.20;;;;;;;22.22;48.28;101255.34;5071721;28;20174;-74
2022/06/17 10:06:12;;;;;;;0.50;0.50;;;;;;;22.07;48.48;101253.47;5071078;28;20218;-73
2022/06/17 10:08:59;;;;;;;0.30;0.30;;;;;;;22.01;49.78;101266.88;5070236;28;20271;-73
2022/06/17 10:12:00;;;;;;;0.00;0.00;;;;;;;22.00;46.85;101256.13;5071858;28;20175;-73
2022/06/17 10:14:45;;;;;;;0.00;0.00;;;;;;;22.28;47.70;101259.44;5071623;28;20175;-75
2022/06/17 10:20:46;;;;;;;0.00;0.00;;;;;;;23.10;47.04;101261.56;5071809;28;20177;-74
2022/06/17 10:23:21;;;;;;;0.03;0.03;;;;;;;23.18;48.37;101265.25;5071405;28;20700;-73
2022/06/17 10:26:07;;;;;;;0.73;0.73;;;;;;;23.01;47.10;101260.25;5071447;28;20181;-73
2022/06/17 10:29:11;;;;;;;1.60;0.70;;;;;;;22.92;45.98;101252.13;5070841;28;20182;-74
2022/06/17 10:31:38;;;;;;;0.00;0.00;;;;;;;22.78;46.58;101247.13;5071233;28;20523;-74
2022/06/17 10:34:12;;;;;;;0.40;0.40;;;;;;;22.61;47.48;101244.06;5071167;28;20179;-74
2022/06/17 10:36:38;;;;;;;0.87;0.63;;;;;;;22.74;50.15;101248.25;5070919;28;20193;-74
2022/06/17 10:39:10;;;;;;;0.30;0.30;;;;;;;23.06;48.08;101240.41;5070826;28;20201;-73
2022/06/17 10:41:36;;;;;;;0.20;0.20;;;;;;;22.79;46.07;101245.16;5071147;28;20627;-74
2022/06/17 10:44:03;;;;;;;0.00;0.00;;;;;;;23.26;48.84;101247.44;5069460;28;20170;-74
2022/06/17 10:46:36;;;;;;;0.10;0.10;;;;;;;23.55;47.41;101248.59;5070850;28;20186;-73
2022/06/17 10:49:12;;;;;;;1.13;0.73;;;;;;;23.72;46.34;101247.22;5052545;28;20608;-74
2022/06/17 10:51:38;;;;;;;0.80;0.80;;;;;;;23.67;46.09;101247.56;5071008;28;20220;-74
2022/06/17 10:54:17;;;;;;;0.30;0.30;;;;;;;23.43;46.16;101252.47;5070803;28;20170;-74
2022/06/17 10:57:01;;;;;;;0.40;0.40;;;;;;;23.30;45.86;101250.28;5070529;28;20174;-74
2022/06/17 10:59:35;;;;;;;0.17;0.17;;;;;;;23.27;46.17;101246.25;5070373;28;20221;-73
2022/06/17 11:02:02;;;;;;;0.00;0.00;;;;;;;23.23;44.81;101237.03;5070915;28;20182;-73
2022/06/17 11:04:29;;;;;;;0.00;0.00;;;;;;;23.50;46.09;101242.56;5070183;28;20177;-74
2022/06/17 11:07:00;;;;;;;0.10;0.10;;;;;;;23.64;47.37;101248.34;5070415;28;20261;-73
2022/06/17 11:09:30;;;;;;;0.00;0.00;;;;;;;23.56;45.62;101230.66;5070202;28;20162;-73
2022/06/17 11:12:06;;;;;;;0.00;0.00;;;;;;;23.99;45.08;101229.16;5052722;28;20228;-75
2022/06/17 11:14:51;;;;;;;0.00;0.00;;;;;;;24.08;45.57;101226.09;5070633;28;20166;-75
2022/06/17 11:17:22;;;;;;;0.10;0.10;;;;;;;24.21;47.09;101221.81;5052242;28;20479;-73
2022/06/17 11:19:52;;;;;;;0.00;0.00;;;;;;;24.06;45.52;101220.09;5070031;28;20215;-73
2022/06/17 11:22:25;;;;;;;0.43;0.30;;;;;;;23.94;45.19;101221.16;5070472;28;20642;-74
2022/06/17 11:24:58;;;;;;;0.50;0.50;;;;;;;23.92;45.69;101214.34;5070513;28;20182;-74
2022/06/17 11:27:41;;;;;;;0.13;0.13;;;;;;;23.99;44.96;101200.47;5070044;28;20485;-75
2022/06/17 11:30:22;;;;;;;0.60;0.60;;;;;;;23.79;44.88;101204.66;5070267;28;20657;-74
2022/06/17 11:32:49;;;;;;;0.00;0.00;;;;;;;23.75;45.45;101199.03;5070488;28;20178;-73
2022/06/17 11:35:32;;;;;;;0.00;0.00;;;;;;;23.83;46.69;101199.91;5070276;28;20174;-74
2022/06/17 11:38:00;;;;;;;0.90;0.90;;;;;;;23.99;44.17;101194.88;5069507;28;20206;-73
2022/06/17 11:40:30;;;;;;;0.00;0.00;;;;;;;24.07;45.16;101190.97;5070349;28;20586;-74
2022/06/17 11:42:57;;;;;;;0.57;0.57;;;;;;;24.09;45.19;101191.38;5070452;28;20158;-73
2022/06/17 11:45:31;;;;;;;0.00;0.00;;;;;;;24.10;44.52;101195.78;5069243;28;20537;-74
2022/06/17 11:48:02;;;;;;;0.20;0.20;;;;;;;24.14;45.60;101188.22;5051282;28;20189;-74
2022/06/17 11:50:30;;;;;;;0.00;0.00;;;;;;;24.14;45.16;101168.69;5052159;28;20166;-74
2022/06/17 11:53:06;;;;;;;0.00;0.00;;;;;;;24.41;46.26;101166.53;5070089;28;20162;-75
2022/06/17 11:55:40;;;;;;;0.23;0.23;;;;;;;24.41;45.17;101165.72;5070163;28;20467;-75